sensor_id;sensor_type;location;lat;lon;timestamp;temperature;humidity
57390;DHT22;43217;52.694;6.214;2022-08-30T00:01:33;16.40;99.90
57390;DHT22;43217;52.694;6.214;2022-08-30T00:03:59;16.40;99.90
57390;DHT22;43217;52.694;6.214;2022-08-30T00:06:25;16.40;99.90
57390;DHT22;43217;52.694;6.214;2022-08-30T00:08:52;16.40;99.90
57390;DHT22;43217;52.694;6.214;2022-08-30T00:11:21;16.30;99.90
57390;DHT22;43217;52.694;6.214;2022-08-30T00:13:50;16.40;99.90
57390;DHT22;43217;52.694;6.214;2022-08-30T00:16:17;16.40;99.90
57390;DHT22;43217;52.694;6.214;2022-08-30T00:18:43;16.40;99.90
57390;DHT22;43217;52.694;6.214;2022-08-30T00:21:10;16.30;99.90
57390;DHT22;43217;52.694;6.214;2022-08-30T00:23:36;16.30;99.90
57390;DHT22;43217;52.694;6.214;2022-08-30T00:26:03;16.30;99.90
57390;DHT22;43217;52.694;6.214;2022-08-30T00:28:29;16.20;99.90
57390;DHT22;43217;52.694;6.214;2022-08-30T00:30:56;16.20;99.90
57390;DHT22;43217;52.694;6.214;2022-08-30T00:33:22;16.20;99.90
57390;DHT22;43217;52.694;6.214;2022-08-30T00:35:47;16.10;99.90
57390;DHT22;43217;52.694;6.214;2022-08-30T00:38:13;16.10;99.90
57390;DHT22;43217;52.694;6.214;2022-08-30T00:40:42;16.10;99.90
57390;DHT22;43217;52.694;6.214;2022-08-30T00:43:13;16.10;99.90
57390;DHT22;43217;52.694;6.214;2022-08-30T00:45:41;16.10;99.90
57390;DHT22;43217;52.694;6.214;2022-08-30T00:48:06;16.00;99.90
57390;DHT22;43217;52.694;6.214;2022-08-30T00:50:45;15.90;99.90
57390;DHT22;43217;52.694;6.214;2022-08-30T00:53:18;16.00;99.90
57390;DHT22;43217;52.694;6.214;2022-08-30T00:55:45;15.90;99.90
57390;DHT22;43217;52.694;6.214;2022-08-30T00:58:17;15.90;99.90
57390;DHT22;43217;52.694;6.214;2022-08-30T01:00:48;15.90;99.90
57390;DHT22;43217;52.694;6.214;2022-08-30T01:03:14;15.80;99.90
57390;DHT22;43217;52.694;6.214;2022-08-30T01:05:40;15.90;99.90
57390;DHT22;43217;52.694;6.214;2022-08-30T01:08:06;15.80;99.90
57390;DHT22;43217;52.694;6.214;2022-08-30T01:10:33;15.80;99.90
57390;DHT22;43217;52.694;6.214;2022-08-30T01:13:05;15.80;99.90
57390;DHT22;43217;52.694;6.214;2022-08-30T01:15:32;15.80;99.90
57390;DHT22;43217;52.694;6.214;2022-08-30T01:18:07;15.80;99.90
57390;DHT22;43217;52.694;6.214;2022-08-30T01:20:39;15.80;99.90
57390;DHT22;43217;52.694;6.214;2022-08-30T01:23:12;15.80;99.90
57390;DHT22;43217;52.694;6.214;2022-08-30T01:25:38;15.70;99.90
57390;DHT22;43217;52.694;6.214;2022-08-30T01:28:09;15.70;99.90
57390;DHT22;43217;52.694;6.214;2022-08-30T01:30:36;15.70;99.90
57390;DHT22;43217;52.694;6.214;2022-08-30T01:33:09;15.60;99.90
57390;DHT22;43217;52.694;6.214;2022-08-30T01:38:15;15.60;99.90
57390;DHT22;43217;52.694;6.214;2022-08-30T01:40:42;15.60;99.90
57390;DHT22;43217;52.694;6.214;2022-08-30T01:43:09;15.60;99.90
57390;DHT22;43217;52.694;6.214;2022-08-30T01:45:35;15.60;99.90
57390;DHT22;43217;52.694;6.214;2022-08-30T01:48:01;15.60;99.90
57390;DHT22;43217;52.694;6.214;2022-08-30T01:50:26;15.60;99.90
57390;DHT22;43217;52.694;6.214;2022-08-30T01:52:52;15.60;99.90
57390;DHT22;43217;52.694;6.214;2022-08-30T01:55:18;15.60;99.90
57390;DHT22;43217;52.694;6.214;2022-08-30T01:57:44;15.50;99.90
57390;DHT22;43217;52.694;6.214;2022-08-30T02:00:10;15.50;99.90
57390;DHT22;43217;52.694;6.214;2022-08-30T02:02:35;15.50;99.90
57390;DHT22;43217;52.694;6.214;2022-08-30T02:05:01;15.50;99.90
57390;DHT22;43217;52.694;6.214;2022-08-30T02:07:27;15.50;99.90
57390;DHT22;43217;52.694;6.214;2022-08-30T02:09:53;15.50;99.90
57390;DHT22;43217;52.694;6.214;2022-08-30T02:12:19;15.50;99.90
57390;DHT22;43217;52.694;6.214;2022-08-30T02:14:44;15.50;99.90
57390;DHT22;43217;52.694;6.214;2022-08-30T02:17:11;15.40;99.90
57390;DHT22;43217;52.694;6.214;2022-08-30T02:19:38;15.40;99.90
57390;DHT22;43217;52.694;6.214;2022-08-30T02:22:04;15.40;99.90
57390;DHT22;43217;52.694;6.214;2022-08-30T02:24:30;15.40;99.90
57390;DHT22;43217;52.694;6.214;2022-08-30T02:26:56;15.40;99.90
57390;DHT22;43217;52.694;6.214;2022-08-30T02:29:23;15.30;99.90
57390;DHT22;43217;52.694;6.214;2022-08-30T02:31:49;15.30;99.90
57390;DHT22;43217;52.694;6.214;2022-08-30T02:34:15;15.30;99.90
57390;DHT22;43217;52.694;6.214;2022-08-30T02:36:41;15.30;99.90
57390;DHT22;43217;52.694;6.214;2022-08-30T02:39:08;15.30;99.90
57390;DHT22;43217;52.694;6.214;2022-08-30T02:41:34;15.30;99.90
57390;DHT22;43217;52.694;6.214;2022-08-30T02:44:00;15.30;99.90
57390;DHT22;43217;52.694;6.214;2022-08-30T02:46:26;15.30;99.90
57390;DHT22;43217;52.694;6.214;2022-08-30T02:48:52;15.30;99.90
57390;DHT22;43217;52.694;6.214;2022-08-30T02:51:17;15.30;99.90
57390;DHT22;43217;52.694;6.214;2022-08-30T02:53:44;15.20;99.90
57390;DHT22;43217;52.694;6.214;2022-08-30T02:56:12;15.20;99.90
57390;DHT22;43217;52.694;6.214;2022-08-30T02:58:38;15.30;99.90
57390;DHT22;43217;52.694;6.214;2022-08-30T03:01:09;15.20;99.90
57390;DHT22;43217;52.694;6.214;2022-08-30T03:03:36;15.20;99.90
57390;DHT22;43217;52.694;6.214;2022-08-30T03:06:02;15.20;99.90
57390;DHT22;43217;52.694;6.214;2022-08-30T03:08:28;15.20;99.90
57390;DHT22;43217;52.694;6.214;2022-08-30T03:10:54;15.20;99.90
57390;DHT22;43217;52.694;6.214;2022-08-30T03:13:22;15.20;99.90
57390;DHT22;43217;52.694;6.214;2022-08-30T03:15:47;15.20;99.90
57390;DHT22;43217;52.694;6.214;2022-08-30T03:18:15;15.20;99.90
57390;DHT22;43217;52.694;6.214;2022-08-30T03:20:41;15.20;99.90
57390;DHT22;43217;52.694;6.214;2022-08-30T03:23:06;15.20;99.90
57390;DHT22;43217;52.694;6.214;2022-08-30T03:25:32;15.10;99.90
57390;DHT22;43217;52.694;6.214;2022-08-30T03:27:58;15.10;99.90
57390;DHT22;43217;52.694;6.214;2022-08-30T03:30:24;15.10;99.90
57390;DHT22;43217;52.694;6.214;2022-08-30T03:32:50;15.00;99.90
57390;DHT22;43217;52.694;6.214;2022-08-30T03:35:17;15.00;99.90
57390;DHT22;43217;52.694;6.214;2022-08-30T03:37:43;15.00;99.90
57390;DHT22;43217;52.694;6.214;2022-08-30T03:40:11;15.00;99.90
57390;DHT22;43217;52.694;6.214;2022-08-30T03:42:37;14.90;99.90
57390;DHT22;43217;52.694;6.214;2022-08-30T03:45:04;14.90;99.90
57390;DHT22;43217;52.694;6.214;2022-08-30T03:47:30;14.90;99.90
57390;DHT22;43217;52.694;6.214;2022-08-30T03:49:56;14.90;99.90
57390;DHT22;43217;52.694;6.214;2022-08-30T03:52:21;14.90;99.90
57390;DHT22;43217;52.694;6.214;2022-08-30T03:54:47;14.90;99.90
57390;DHT22;43217;52.694;6.214;2022-08-30T03:57:13;14.80;99.90
57390;DHT22;43217;52.694;6.214;2022-08-30T03:59:38;14.80;99.90
57390;DHT22;43217;52.694;6.214;2022-08-30T04:02:04;14.80;99.90
57390;DHT22;43217;52.694;6.214;2022-08-30T04:04:30;14.80;99.90
57390;DHT22;43217;52.694;6.214;2022-08-30T04:07:22;14.70;99.90
57390;DHT22;43217;52.694;6.214;2022-08-30T04:09:47;14.70;99.90
57390;DHT22;43217;52.694;6.214;2022-08-30T04:12:14;14.70;99.90
57390;DHT22;43217;52.694;6.214;2022-08-30T04:14:39;14.70;99.90
57390;DHT22;43217;52.694;6.214;2022-08-30T04:17:05;14.60;99.90
57390;DHT22;43217;52.694;6.214;2022-08-30T04:19:36;14.60;99.90
57390;DHT22;43217;52.694;6.214;2022-08-30T04:22:02;14.60;99.90
57390;DHT22;43217;52.694;6.214;2022-08-30T04:24:27;14.60;99.90
57390;DHT22;43217;52.694;6.214;2022-08-30T04:26:53;14.60;99.90
57390;DHT22;43217;52.694;6.214;2022-08-30T04:29:18;14.50;99.90
57390;DHT22;43217;52.694;6.214;2022-08-30T04:31:51;14.50;99.90
57390;DHT22;43217;52.694;6.214;2022-08-30T04:34:28;14.50;99.90
57390;DHT22;43217;52.694;6.214;2022-08-30T04:37:16;14.50;99.90
57390;DHT22;43217;52.694;6.214;2022-08-30T04:39:57;14.40;99.90
57390;DHT22;43217;52.694;6.214;2022-08-30T04:42:25;14.40;99.90
57390;DHT22;43217;52.694;6.214;2022-08-30T04:44:54;14.40;99.90
57390;DHT22;43217;52.694;6.214;2022-08-30T04:47:20;14.30;99.90
57390;DHT22;43217;52.694;6.214;2022-08-30T04:49:45;14.30;99.90
57390;DHT22;43217;52.694;6.214;2022-08-30T04:52:11;14.30;99.90
57390;DHT22;43217;52.694;6.214;2022-08-30T04:54:36;14.20;99.90
57390;DHT22;43217;52.694;6.214;2022-08-30T04:57:04;14.20;99.90
57390;DHT22;43217;52.694;6.214;2022-08-30T04:59:30;14.20;99.90
57390;DHT22;43217;52.694;6.214;2022-08-30T05:01:55;14.20;99.90
57390;DHT22;43217;52.694;6.214;2022-08-30T05:04:21;14.10;99.90
57390;DHT22;43217;52.694;6.214;2022-08-30T05:06:47;14.10;99.90
57390;DHT22;43217;52.694;6.214;2022-08-30T05:09:13;14.10;99.90
57390;DHT22;43217;52.694;6.214;2022-08-30T05:11:38;14.10;99.90
57390;DHT22;43217;52.694;6.214;2022-08-30T05:14:04;14.10;99.90
57390;DHT22;43217;52.694;6.214;2022-08-30T05:16:29;14.10;99.90
57390;DHT22;43217;52.694;6.214;2022-08-30T05:18:55;14.10;99.90
57390;DHT22;43217;52.694;6.214;2022-08-30T05:21:23;14.10;99.90
57390;DHT22;43217;52.694;6.214;2022-08-30T05:23:50;14.10;99.90
57390;DHT22;43217;52.694;6.214;2022-08-30T05:26:20;14.10;99.90
57390;DHT22;43217;52.694;6.214;2022-08-30T05:28:46;14.20;99.90
57390;DHT22;43217;52.694;6.214;2022-08-30T05:31:24;14.20;99.90
57390;DHT22;43217;52.694;6.214;2022-08-30T05:33:52;14.20;99.90
57390;DHT22;43217;52.694;6.214;2022-08-30T05:36:19;14.30;99.90
57390;DHT22;43217;52.694;6.214;2022-08-30T05:38:45;14.30;99.90
57390;DHT22;43217;52.694;6.214;2022-08-30T05:41:12;14.30;99.90
57390;DHT22;43217;52.694;6.214;2022-08-30T05:43:37;14.30;99.90
57390;DHT22;43217;52.694;6.214;2022-08-30T05:46:09;14.40;99.90
57390;DHT22;43217;52.694;6.214;2022-08-30T05:48:36;14.50;99.90
57390;DHT22;43217;52.694;6.214;2022-08-30T05:51:08;14.90;99.90
57390;DHT22;43217;52.694;6.214;2022-08-30T05:53:34;15.60;99.90
57390;DHT22;43217;52.694;6.214;2022-08-30T05:56:01;16.30;99.90
57390;DHT22;43217;52.694;6.214;2022-08-30T05:58:27;16.90;99.90
57390;DHT22;43217;52.694;6.214;2022-08-30T06:00:53;17.10;99.90
57390;DHT22;43217;52.694;6.214;2022-08-30T06:03:18;17.30;99.90
57390;DHT22;43217;52.694;6.214;2022-08-30T06:05:44;17.40;99.90
57390;DHT22;43217;52.694;6.214;2022-08-30T06:08:10;17.90;99.90
57390;DHT22;43217;52.694;6.214;2022-08-30T06:10:35;18.60;99.90
57390;DHT22;43217;52.694;6.214;2022-08-30T06:13:01;19.20;99.90
57390;DHT22;43217;52.694;6.214;2022-08-30T06:15:26;19.70;99.90
57390;DHT22;43217;52.694;6.214;2022-08-30T06:17:52;20.10;99.90
57390;DHT22;43217;52.694;6.214;2022-08-30T06:20:17;20.30;99.90
57390;DHT22;43217;52.694;6.214;2022-08-30T06:22:45;20.40;99.90
57390;DHT22;43217;52.694;6.214;2022-08-30T06:25:11;20.90;99.90
57390;DHT22;43217;52.694;6.214;2022-08-30T06:27:37;21.50;99.90
57390;DHT22;43217;52.694;6.214;2022-08-30T06:30:04;22.10;99.90
57390;DHT22;43217;52.694;6.214;2022-08-30T06:32:32;22.50;99.90
57390;DHT22;43217;52.694;6.214;2022-08-30T06:34:58;22.90;99.90
57390;DHT22;43217;52.694;6.214;2022-08-30T06:37:24;23.10;99.90
57390;DHT22;43217;52.694;6.214;2022-08-30T06:39:49;23.50;99.90
57390;DHT22;43217;52.694;6.214;2022-08-30T06:42:15;24.00;99.90
57390;DHT22;43217;52.694;6.214;2022-08-30T06:44:41;24.40;99.90
57390;DHT22;43217;52.694;6.214;2022-08-30T06:47:06;24.60;98.10
57390;DHT22;43217;52.694;6.214;2022-08-30T06:49:32;24.80;96.20
57390;DHT22;43217;52.694;6.214;2022-08-30T06:51:58;24.90;94.50
57390;DHT22;43217;52.694;6.214;2022-08-30T06:54:23;25.00;93.30
57390;DHT22;43217;52.694;6.214;2022-08-30T06:56:52;25.10;92.80
57390;DHT22;43217;52.694;6.214;2022-08-30T06:59:18;25.40;92.20
57390;DHT22;43217;52.694;6.214;2022-08-30T07:01:55;25.80;90.70
57390;DHT22;43217;52.694;6.214;2022-08-30T07:04:22;26.20;84.50
57390;DHT22;43217;52.694;6.214;2022-08-30T07:06:47;26.70;84.90
57390;DHT22;43217;52.694;6.214;2022-08-30T07:09:13;27.20;82.80
57390;DHT22;43217;52.694;6.214;2022-08-30T07:11:42;27.60;78.20
57390;DHT22;43217;52.694;6.214;2022-08-30T07:14:10;27.40;76.30
57390;DHT22;43217;52.694;6.214;2022-08-30T07:16:36;27.30;74.90
57390;DHT22;43217;52.694;6.214;2022-08-30T07:19:03;27.00;74.10
57390;DHT22;43217;52.694;6.214;2022-08-30T07:21:37;27.10;73.70
57390;DHT22;43217;52.694;6.214;2022-08-30T07:24:05;27.30;72.00
57390;DHT22;43217;52.694;6.214;2022-08-30T07:26:46;27.10;72.30
57390;DHT22;43217;52.694;6.214;2022-08-30T07:29:15;27.40;71.80
57390;DHT22;43217;52.694;6.214;2022-08-30T07:31:41;27.50;70.80
57390;DHT22;43217;52.694;6.214;2022-08-30T07:34:07;27.50;69.40
57390;DHT22;43217;52.694;6.214;2022-08-30T07:36:35;27.40;69.70
57390;DHT22;43217;52.694;6.214;2022-08-30T07:39:02;27.60;68.40
57390;DHT22;43217;52.694;6.214;2022-08-30T07:41:31;27.30;67.50
57390;DHT22;43217;52.694;6.214;2022-08-30T07:43:58;27.10;67.80
57390;DHT22;43217;52.694;6.214;2022-08-30T07:46:28;27.20;67.50
57390;DHT22;43217;52.694;6.214;2022-08-30T07:48:54;27.40;67.50
57390;DHT22;43217;52.694;6.214;2022-08-30T07:51:23;27.40;66.60
57390;DHT22;43217;52.694;6.214;2022-08-30T07:53:49;27.60;65.70
57390;DHT22;43217;52.694;6.214;2022-08-30T07:56:14;27.50;64.80
57390;DHT22;43217;52.694;6.214;2022-08-30T07:58:40;27.60;64.80
57390;DHT22;43217;52.694;6.214;2022-08-30T08:01:08;27.80;64.30
57390;DHT22;43217;52.694;6.214;2022-08-30T08:03:34;27.80;61.80
57390;DHT22;43217;52.694;6.214;2022-08-30T08:06:03;27.90;62.00
57390;DHT22;43217;52.694;6.214;2022-08-30T08:08:29;28.00;61.50
57390;DHT22;43217;52.694;6.214;2022-08-30T08:10:55;28.20;60.70
57390;DHT22;43217;52.694;6.214;2022-08-30T08:13:20;28.10;60.00
57390;DHT22;43217;52.694;6.214;2022-08-30T08:15:47;28.10;59.70
57390;DHT22;43217;52.694;6.214;2022-08-30T08:18:13;27.90;59.50
57390;DHT22;43217;52.694;6.214;2022-08-30T08:20:39;28.20;59.00
57390;DHT22;43217;52.694;6.214;2022-08-30T08:23:04;28.20;58.70
57390;DHT22;43217;52.694;6.214;2022-08-30T08:25:30;28.00;58.90
57390;DHT22;43217;52.694;6.214;2022-08-30T08:27:56;28.00;58.50
57390;DHT22;43217;52.694;6.214;2022-08-30T08:30:22;28.10;57.90
57390;DHT22;43217;52.694;6.214;2022-08-30T08:32:48;28.20;58.00
57390;DHT22;43217;52.694;6.214;2022-08-30T08:35:16;28.10;57.10
57390;DHT22;43217;52.694;6.214;2022-08-30T08:37:42;27.90;57.30
57390;DHT22;43217;52.694;6.214;2022-08-30T08:40:15;28.00;57.80
57390;DHT22;43217;52.694;6.214;2022-08-30T08:42:56;28.00;57.60
57390;DHT22;43217;52.694;6.214;2022-08-30T08:45:31;28.20;57.70
57390;DHT22;43217;52.694;6.214;2022-08-30T08:48:06;28.40;57.20
57390;DHT22;43217;52.694;6.214;2022-08-30T08:50:33;28.60;57.40
57390;DHT22;43217;52.694;6.214;2022-08-30T08:53:13;28.70;56.80
57390;DHT22;43217;52.694;6.214;2022-08-30T08:56:05;28.60;55.00
57390;DHT22;43217;52.694;6.214;2022-08-30T08:58:46;28.20;56.40
57390;DHT22;43217;52.694;6.214;2022-08-30T09:01:13;27.90;55.60
57390;DHT22;43217;52.694;6.214;2022-08-30T09:03:39;27.90;56.90
57390;DHT22;43217;52.694;6.214;2022-08-30T09:06:39;27.80;56.90
57390;DHT22;43217;52.694;6.214;2022-08-30T09:09:06;28.10;56.50
57390;DHT22;43217;52.694;6.214;2022-08-30T09:11:34;28.00;57.50
57390;DHT22;43217;52.694;6.214;2022-08-30T09:14:02;27.70;56.90
57390;DHT22;43217;52.694;6.214;2022-08-30T09:19:33;28.10;57.20
57390;DHT22;43217;52.694;6.214;2022-08-30T09:24:41;28.30;55.90
57390;DHT22;43217;52.694;6.214;2022-08-30T09:27:30;28.30;55.40
57390;DHT22;43217;52.694;6.214;2022-08-30T09:30:03;28.30;54.20
57390;DHT22;43217;52.694;6.214;2022-08-30T09:32:39;28.40;55.50
57390;DHT22;43217;52.694;6.214;2022-08-30T09:38:07;26.90;54.00
57390;DHT22;43217;52.694;6.214;2022-08-30T09:40:41;25.80;55.90
57390;DHT22;43217;52.694;6.214;2022-08-30T09:43:09;25.20;57.30
57390;DHT22;43217;52.694;6.214;2022-08-30T09:45:41;25.00;58.20
57390;DHT22;43217;52.694;6.214;2022-08-30T09:51:16;24.70;58.50
57390;DHT22;43217;52.694;6.214;2022-08-30T09:56:43;24.00;60.00
57390;DHT22;43217;52.694;6.214;2022-08-30T10:02:05;23.80;60.60
57390;DHT22;43217;52.694;6.214;2022-08-30T10:07:59;24.00;60.50
57390;DHT22;43217;52.694;6.214;2022-08-30T10:10:49;24.00;59.50
57390;DHT22;43217;52.694;6.214;2022-08-30T10:16:39;23.80;59.50
57390;DHT22;43217;52.694;6.214;2022-08-30T10:21:46;23.80;60.30
57390;DHT22;43217;52.694;6.214;2022-08-30T10:24:17;23.80;60.30
57390;DHT22;43217;52.694;6.214;2022-08-30T10:26:56;23.70;60.50
57390;DHT22;43217;52.694;6.214;2022-08-30T10:29:46;23.70;59.80
57390;DHT22;43217;52.694;6.214;2022-08-30T10:32:53;23.50;60.40
57390;DHT22;43217;52.694;6.214;2022-08-30T10:35:24;23.50;61.90
57390;DHT22;43217;52.694;6.214;2022-08-30T10:37:58;23.50;60.90
57390;DHT22;43217;52.694;6.214;2022-08-30T10:40:31;23.50;60.60
57390;DHT22;43217;52.694;6.214;2022-08-30T10:43:40;23.40;60.30
57390;DHT22;43217;52.694;6.214;2022-08-30T10:46:35;23.20;59.90
57390;DHT22;43217;52.694;6.214;2022-08-30T10:49:10;23.20;60.70
57390;DHT22;43217;52.694;6.214;2022-08-30T10:55:10;23.40;61.10
57390;DHT22;43217;52.694;6.214;2022-08-30T10:57:37;23.50;61.10
57390;DHT22;43217;52.694;6.214;2022-08-30T11:00:11;23.40;60.70
57390;DHT22;43217;52.694;6.214;2022-08-30T11:03:04;23.30;60.40
57390;DHT22;43217;52.694;6.214;2022-08-30T11:05:58;23.20;60.90
57390;DHT22;43217;52.694;6.214;2022-08-30T11:09:05;23.10;61.10
57390;DHT22;43217;52.694;6.214;2022-08-30T11:14:02;23.00;61.50
57390;DHT22;43217;52.694;6.214;2022-08-30T11:16:44;23.00;61.40
57390;DHT22;43217;52.694;6.214;2022-08-30T11:19:24;23.10;61.90
57390;DHT22;43217;52.694;6.214;2022-08-30T11:21:51;23.10;61.70
57390;DHT22;43217;52.694;6.214;2022-08-30T11:24:21;23.30;61.30
57390;DHT22;43217;52.694;6.214;2022-08-30T11:31:56;23.30;60.60
57390;DHT22;43217;52.694;6.214;2022-08-30T11:46:20;23.10;59.30
57390;DHT22;43217;52.694;6.214;2022-08-30T11:52:08;23.10;60.10
57390;DHT22;43217;52.694;6.214;2022-08-30T11:55:20;23.00;60.90
57390;DHT22;43217;52.694;6.214;2022-08-30T12:11:51;23.20;60.80
57390;DHT22;43217;52.694;6.214;2022-08-30T12:14:38;23.20;61.70
57390;DHT22;43217;52.694;6.214;2022-08-30T12:17:16;23.30;60.90
57390;DHT22;43217;52.694;6.214;2022-08-30T12:20:05;23.40;59.40
57390;DHT22;43217;52.694;6.214;2022-08-30T12:22:35;23.40;59.30
57390;DHT22;43217;52.694;6.214;2022-08-30T12:25:24;23.30;59.20
57390;DHT22;43217;52.694;6.214;2022-08-30T12:28:09;23.30;59.60
57390;DHT22;43217;52.694;6.214;2022-08-30T12:30:35;23.30;59.60
57390;DHT22;43217;52.694;6.214;2022-08-30T12:33:04;23.30;60.00
57390;DHT22;43217;52.694;6.214;2022-08-30T12:35:30;23.30;58.90
57390;DHT22;43217;52.694;6.214;2022-08-30T12:38:04;23.20;58.60
57390;DHT22;43217;52.694;6.214;2022-08-30T12:40:33;23.20;58.70
57390;DHT22;43217;52.694;6.214;2022-08-30T12:43:06;23.10;59.00
57390;DHT22;43217;52.694;6.214;2022-08-30T12:45:44;23.20;59.40
57390;DHT22;43217;52.694;6.214;2022-08-30T12:48:16;23.20;58.50
57390;DHT22;43217;52.694;6.214;2022-08-30T12:50:54;23.20;59.10
57390;DHT22;43217;52.694;6.214;2022-08-30T12:53:33;23.20;59.10
57390;DHT22;43217;52.694;6.214;2022-08-30T12:56:10;23.20;59.50
57390;DHT22;43217;52.694;6.214;2022-08-30T12:58:46;23.30;59.60
57390;DHT22;43217;52.694;6.214;2022-08-30T13:03:40;23.30;58.90
57390;DHT22;43217;52.694;6.214;2022-08-30T13:06:07;23.30;57.40
57390;DHT22;43217;52.694;6.214;2022-08-30T13:08:47;23.30;57.30
57390;DHT22;43217;52.694;6.214;2022-08-30T13:13:49;23.40;56.00
57390;DHT22;43217;52.694;6.214;2022-08-30T13:18:55;23.30;55.90
57390;DHT22;43217;52.694;6.214;2022-08-30T13:21:50;23.30;56.60
57390;DHT22;43217;52.694;6.214;2022-08-30T13:24:16;23.30;56.90
57390;DHT22;43217;52.694;6.214;2022-08-30T13:26:41;23.30;57.00
57390;DHT22;43217;52.694;6.214;2022-08-30T13:29:15;23.30;56.70
57390;DHT22;43217;52.694;6.214;2022-08-30T13:31:42;23.40;56.60
57390;DHT22;43217;52.694;6.214;2022-08-30T13:34:08;23.40;56.50
57390;DHT22;43217;52.694;6.214;2022-08-30T13:36:35;23.50;56.60
57390;DHT22;43217;52.694;6.214;2022-08-30T13:39:03;23.50;56.50
57390;DHT22;43217;52.694;6.214;2022-08-30T13:41:29;23.50;56.70
57390;DHT22;43217;52.694;6.214;2022-08-30T13:43:55;23.60;56.90
57390;DHT22;43217;52.694;6.214;2022-08-30T13:46:22;23.60;57.40
57390;DHT22;43217;52.694;6.214;2022-08-30T13:48:51;23.60;57.00
57390;DHT22;43217;52.694;6.214;2022-08-30T13:51:21;23.50;57.40
57390;DHT22;43217;52.694;6.214;2022-08-30T13:53:48;23.40;57.80
57390;DHT22;43217;52.694;6.214;2022-08-30T13:56:14;23.40;58.80
57390;DHT22;43217;52.694;6.214;2022-08-30T13:58:42;23.40;58.70
57390;DHT22;43217;52.694;6.214;2022-08-30T14:01:07;23.40;58.70
57390;DHT22;43217;52.694;6.214;2022-08-30T14:03:33;23.40;58.90
57390;DHT22;43217;52.694;6.214;2022-08-30T14:05:58;23.40;59.50
57390;DHT22;43217;52.694;6.214;2022-08-30T14:08:27;23.40;59.50
57390;DHT22;43217;52.694;6.214;2022-08-30T14:10:53;23.30;59.20
57390;DHT22;43217;52.694;6.214;2022-08-30T14:13:19;23.30;58.90
57390;DHT22;43217;52.694;6.214;2022-08-30T14:15:44;23.30;58.60
57390;DHT22;43217;52.694;6.214;2022-08-30T14:18:12;23.30;58.50
57390;DHT22;43217;52.694;6.214;2022-08-30T14:20:38;23.30;58.50
57390;DHT22;43217;52.694;6.214;2022-08-30T14:23:03;23.30;58.70
57390;DHT22;43217;52.694;6.214;2022-08-30T14:25:29;23.30;59.30
57390;DHT22;43217;52.694;6.214;2022-08-30T14:27:55;23.30;59.40
57390;DHT22;43217;52.694;6.214;2022-08-30T14:30:22;23.30;59.60
57390;DHT22;43217;52.694;6.214;2022-08-30T14:32:47;23.30;60.00
57390;DHT22;43217;52.694;6.214;2022-08-30T14:35:14;23.30;59.90
57390;DHT22;43217;52.694;6.214;2022-08-30T14:37:43;23.30;60.60
57390;DHT22;43217;52.694;6.214;2022-08-30T14:40:17;23.30;60.70
57390;DHT22;43217;52.694;6.214;2022-08-30T14:42:42;23.30;60.50
57390;DHT22;43217;52.694;6.214;2022-08-30T14:45:09;23.20;61.00
57390;DHT22;43217;52.694;6.214;2022-08-30T14:47:34;23.30;61.90
57390;DHT22;43217;52.694;6.214;2022-08-30T14:50:00;23.30;59.70
57390;DHT22;43217;52.694;6.214;2022-08-30T14:52:30;23.30;59.80
57390;DHT22;43217;52.694;6.214;2022-08-30T14:54:58;23.30;59.70
57390;DHT22;43217;52.694;6.214;2022-08-30T14:57:24;23.30;59.60
57390;DHT22;43217;52.694;6.214;2022-08-30T14:59:49;23.30;60.30
57390;DHT22;43217;52.694;6.214;2022-08-30T15:02:16;23.30;60.70
57390;DHT22;43217;52.694;6.214;2022-08-30T15:04:41;23.30;61.10
57390;DHT22;43217;52.694;6.214;2022-08-30T15:07:07;23.40;60.60
57390;DHT22;43217;52.694;6.214;2022-08-30T15:09:33;23.30;60.90
57390;DHT22;43217;52.694;6.214;2022-08-30T15:11:58;23.30;61.00
57390;DHT22;43217;52.694;6.214;2022-08-30T15:14:27;23.40;61.30
57390;DHT22;43217;52.694;6.214;2022-08-30T15:16:54;23.40;61.00
57390;DHT22;43217;52.694;6.214;2022-08-30T15:19:20;23.40;60.30
57390;DHT22;43217;52.694;6.214;2022-08-30T15:21:47;23.40;60.60
57390;DHT22;43217;52.694;6.214;2022-08-30T15:24:19;23.40;60.70
57390;DHT22;43217;52.694;6.214;2022-08-30T15:26:45;23.40;61.10
57390;DHT22;43217;52.694;6.214;2022-08-30T15:29:14;23.50;60.40
57390;DHT22;43217;52.694;6.214;2022-08-30T15:31:41;23.50;60.30
57390;DHT22;43217;52.694;6.214;2022-08-30T15:34:08;23.50;60.50
57390;DHT22;43217;52.694;6.214;2022-08-30T15:36:35;23.60;61.20
57390;DHT22;43217;52.694;6.214;2022-08-30T15:39:02;23.60;62.10
57390;DHT22;43217;52.694;6.214;2022-08-30T15:41:28;23.60;61.90
57390;DHT22;43217;52.694;6.214;2022-08-30T15:43:55;23.50;62.00
57390;DHT22;43217;52.694;6.214;2022-08-30T15:48:53;23.00;62.90
57390;DHT22;43217;52.694;6.214;2022-08-30T15:51:21;22.90;63.50
57390;DHT22;43217;52.694;6.214;2022-08-30T15:53:47;22.80;63.80
57390;DHT22;43217;52.694;6.214;2022-08-30T15:56:13;22.70;64.90
57390;DHT22;43217;52.694;6.214;2022-08-30T15:58:39;22.80;63.80
57390;DHT22;43217;52.694;6.214;2022-08-30T16:01:05;22.90;64.10
57390;DHT22;43217;52.694;6.214;2022-08-30T16:03:32;22.90;64.10
57390;DHT22;43217;52.694;6.214;2022-08-30T16:05:58;23.00;63.80
57390;DHT22;43217;52.694;6.214;2022-08-30T16:08:24;23.10;63.40
57390;DHT22;43217;52.694;6.214;2022-08-30T16:10:49;23.20;63.40
57390;DHT22;43217;52.694;6.214;2022-08-30T16:13:15;23.20;64.20
57390;DHT22;43217;52.694;6.214;2022-08-30T16:15:42;23.20;64.60
57390;DHT22;43217;52.694;6.214;2022-08-30T16:18:10;23.20;64.90
57390;DHT22;43217;52.694;6.214;2022-08-30T16:20:48;23.20;65.50
57390;DHT22;43217;52.694;6.214;2022-08-30T16:23:13;23.10;65.50
57390;DHT22;43217;52.694;6.214;2022-08-30T16:25:40;23.00;65.90
57390;DHT22;43217;52.694;6.214;2022-08-30T16:28:05;22.80;66.40
57390;DHT22;43217;52.694;6.214;2022-08-30T16:30:31;22.80;66.60
57390;DHT22;43217;52.694;6.214;2022-08-30T16:32:57;22.70;67.10
57390;DHT22;43217;52.694;6.214;2022-08-30T16:35:22;22.70;67.40
57390;DHT22;43217;52.694;6.214;2022-08-30T16:37:48;22.70;67.40
57390;DHT22;43217;52.694;6.214;2022-08-30T16:40:13;22.70;67.40
57390;DHT22;43217;52.694;6.214;2022-08-30T16:42:39;22.60;67.30
57390;DHT22;43217;52.694;6.214;2022-08-30T16:45:05;22.60;67.40
57390;DHT22;43217;52.694;6.214;2022-08-30T16:47:31;22.50;67.50
57390;DHT22;43217;52.694;6.214;2022-08-30T16:49:59;22.50;67.20
57390;DHT22;43217;52.694;6.214;2022-08-30T16:52:24;22.50;67.20
57390;DHT22;43217;52.694;6.214;2022-08-30T16:54:50;22.50;67.50
57390;DHT22;43217;52.694;6.214;2022-08-30T16:57:16;22.40;67.80
57390;DHT22;43217;52.694;6.214;2022-08-30T16:59:41;22.40;68.20
57390;DHT22;43217;52.694;6.214;2022-08-30T17:02:07;22.30;68.70